createdAt,value
2018-05-04T00:00:26.772Z,11.40
2018-05-04T00:03:02.092Z,11.40
2018-05-04T00:05:37.307Z,11.40
2018-05-04T00:08:12.637Z,11.40
2018-05-04T00:10:47.742Z,11.30
2018-05-04T00:13:23.055Z,11.30
2018-05-04T00:15:59.203Z,11.30
2018-05-04T00:18:34.442Z,11.20
2018-05-04T00:21:09.791Z,11.30
2018-05-04T00:23:45.170Z,11.30
2018-05-04T00:26:20.466Z,11.20
2018-05-04T00:28:55.729Z,11.20
2018-05-04T00:31:31.060Z,11.20
2018-05-04T00:34:06.499Z,11.10
2018-05-04T00:36:41.986Z,11.10
2018-05-04T00:39:17.180Z,11.10
2018-05-04T00:41:53.107Z,11.00
2018-05-04T00:44:28.378Z,11.00
2018-05-04T00:47:04.439Z,10.90
2018-05-04T00:49:39.800Z,10.90
2018-05-04T00:52:15.132Z,10.90
2018-05-04T00:54:50.372Z,10.90
2018-05-04T00:57:25.812Z,10.90
2018-05-04T01:00:01.186Z,10.90
2018-05-04T01:02:36.596Z,10.90
2018-05-04T01:05:11.964Z,10.90
2018-05-04T01:07:47.262Z,10.80
2018-05-04T01:10:22.552Z,10.80
2018-05-04T01:12:58.621Z,10.80
2018-05-04T01:15:33.765Z,10.80
2018-05-04T01:18:08.929Z,10.80
2018-05-04T01:20:45.128Z,10.70
2018-05-04T01:23:20.457Z,10.70
2018-05-04T01:25:56.518Z,10.70
2018-05-04T01:28:31.853Z,10.60
2018-05-04T01:31:07.267Z,10.60
2018-05-04T01:33:42.341Z,10.60
2018-05-04T01:36:17.567Z,10.60
2018-05-04T01:38:52.788Z,10.50
2018-05-04T01:41:28.038Z,10.50
2018-05-04T01:44:03.274Z,10.50
2018-05-04T01:46:38.640Z,10.40
2018-05-04T01:49:13.906Z,10.40
2018-05-04T01:51:50.287Z,10.40
2018-05-04T01:54:25.423Z,10.30
2018-05-04T01:57:03.539Z,10.30
2018-05-04T01:59:38.824Z,10.30
2018-05-04T02:02:13.956Z,10.20
2018-05-04T02:04:49.295Z,10.20
2018-05-04T02:07:24.628Z,10.20
2018-05-04T02:09:59.989Z,10.10
2018-05-04T02:12:35.225Z,10.10
2018-05-04T02:15:11.132Z,10.10
2018-05-04T02:17:46.322Z,10.00
2018-05-04T02:20:21.750Z,10.00
2018-05-04T02:22:56.898Z,10.00
2018-05-04T02:25:32.159Z,9.90
2018-05-04T02:28:07.386Z,9.90
2018-05-04T02:30:42.721Z,9.90
2018-05-04T02:33:18.058Z,9.80
2018-05-04T02:35:54.040Z,9.70
2018-05-04T02:38:29.188Z,9.70
2018-05-04T02:41:04.512Z,9.70
2018-05-04T02:43:40.456Z,9.70
2018-05-04T02:46:15.848Z,9.70
2018-05-04T02:48:51.703Z,9.70
2018-05-04T02:51:26.801Z,9.70
2018-05-04T02:54:02.124Z,9.60
2018-05-04T02:56:37.480Z,9.60
2018-05-04T02:59:13.545Z,9.50
2018-05-04T03:01:48.871Z,9.40
2018-05-04T03:04:24.459Z,9.50
2018-05-04T03:07:01.533Z,9.50
2018-05-04T03:09:36.746Z,9.40
2018-05-04T03:12:13.644Z,9.40
2018-05-04T03:14:48.961Z,9.40
2018-05-04T03:17:24.314Z,9.40
2018-05-04T03:19:59.506Z,9.40
2018-05-04T03:22:35.420Z,9.30
2018-05-04T03:25:10.590Z,9.30
2018-05-04T03:27:46.501Z,9.30
2018-05-04T03:30:22.343Z,9.30
2018-05-04T03:32:57.596Z,9.20
2018-05-04T03:35:32.929Z,9.20
2018-05-04T03:38:08.154Z,9.20
2018-05-04T03:40:43.417Z,9.20
2018-05-04T03:43:18.666Z,9.10
2018-05-04T03:45:53.978Z,9.10
2018-05-04T03:48:29.980Z,9.10
2018-05-04T03:51:05.298Z,9.10
2018-05-04T03:53:40.411Z,9.10
2018-05-04T03:56:16.307Z,9.00
2018-05-04T03:59:10.032Z,9.00
2018-05-04T04:02:03.263Z,9.00
2018-05-04T04:04:39.140Z,9.10
2018-05-04T04:07:14.705Z,9.00
2018-05-04T04:09:50.843Z,9.00
2018-05-04T04:12:28.992Z,9.00
2018-05-04T04:15:04.095Z,9.00
2018-05-04T04:17:40.088Z,8.90
2018-05-04T04:20:15.489Z,8.90
2018-05-04T04:22:50.735Z,9.00
2018-05-04T04:25:25.936Z,9.00
2018-05-04T04:28:01.215Z,8.90
2018-05-04T04:30:37.279Z,9.00
2018-05-04T04:33:13.243Z,9.10
2018-05-04T04:35:48.379Z,9.00
2018-05-04T04:38:23.434Z,9.10
2018-05-04T04:40:58.732Z,9.10
2018-05-04T04:43:34.629Z,9.30
2018-05-04T04:46:09.837Z,9.20
2018-05-04T04:48:44.986Z,9.30
2018-05-04T04:51:20.224Z,9.40
2018-05-04T04:53:55.543Z,9.40
2018-05-04T04:56:30.896Z,9.50
2018-05-04T04:59:06.042Z,9.50
2018-05-04T05:01:41.244Z,9.60
2018-05-04T05:04:16.519Z,9.60
2018-05-04T05:06:51.827Z,9.60
2018-05-04T05:09:27.110Z,9.70
2018-05-04T05:12:02.261Z,9.80
2018-05-04T05:14:37.481Z,9.80
2018-05-04T05:17:12.811Z,9.80
2018-05-04T05:19:48.201Z,9.90
2018-05-04T05:22:23.284Z,10.00
2018-05-04T05:24:58.747Z,10.00
2018-05-04T05:27:34.267Z,10.10
2018-05-04T05:30:09.310Z,10.20
2018-05-04T05:32:46.339Z,10.30
2018-05-04T05:35:21.541Z,10.40
2018-05-04T05:37:57.398Z,10.50
2018-05-04T05:40:33.240Z,11.10
2018-05-04T05:43:09.243Z,11.40
2018-05-04T05:45:45.155Z,11.80
2018-05-04T05:48:22.055Z,11.90
2018-05-04T05:50:57.304Z,11.90
2018-05-04T05:53:32.635Z,12.20
2018-05-04T05:56:07.965Z,12.40
2018-05-04T05:58:43.317Z,12.70
2018-05-04T06:01:19.355Z,13.10
2018-05-04T06:03:54.522Z,13.10
2018-05-04T06:06:30.520Z,13.50
2018-05-04T06:09:06.559Z,13.60
2018-05-04T06:11:41.864Z,13.50
2018-05-04T06:14:17.843Z,14.00
2018-05-04T06:16:53.165Z,13.90
2018-05-04T06:19:28.587Z,14.10
2018-05-04T06:22:03.791Z,14.00
2018-05-04T06:24:39.087Z,14.20
2018-05-04T06:27:14.520Z,14.50
2018-05-04T06:29:49.883Z,14.30
2018-05-04T06:32:25.064Z,14.30
2018-05-04T06:35:00.440Z,14.10
2018-05-04T06:37:36.290Z,14.30
2018-05-04T06:40:12.283Z,14.60
2018-05-04T06:42:48.134Z,14.50
2018-05-04T06:45:23.288Z,14.30
2018-05-04T06:47:58.987Z,14.30
2018-05-04T06:50:34.432Z,14.20
2018-05-04T06:53:09.630Z,14.10
2018-05-04T06:55:44.914Z,14.20
2018-05-04T06:58:20.235Z,14.40
2018-05-04T07:00:56.585Z,14.70
2018-05-04T07:03:31.863Z,14.90
2018-05-04T07:06:07.018Z,15.00
2018-05-04T07:08:42.372Z,14.90
2018-05-04T07:11:17.683Z,15.10
2018-05-04T07:13:52.819Z,15.20
2018-05-04T07:16:28.125Z,15.20
2018-05-04T07:19:03.504Z,15.40
2018-05-04T07:21:39.681Z,15.80
2018-05-04T07:24:15.018Z,15.90
2018-05-04T07:26:50.875Z,16.30
2018-05-04T07:29:26.083Z,16.30
2018-05-04T07:32:01.464Z,16.50
2018-05-04T07:34:36.692Z,16.70
2018-05-04T07:37:12.099Z,16.90
2018-05-04T07:39:47.202Z,17.20
2018-05-04T07:42:22.616Z,17.60
2018-05-04T07:44:58.588Z,18.00
2018-05-04T07:47:33.738Z,18.00
2018-05-04T07:50:08.975Z,18.10
2018-05-04T07:52:44.175Z,17.80
2018-05-04T07:55:19.703Z,17.60
2018-05-04T07:57:54.926Z,17.70
2018-05-04T08:00:30.218Z,17.90
2018-05-04T08:03:05.822Z,18.20
2018-05-04T08:05:41.103Z,18.40
2018-05-04T08:08:16.423Z,18.70
2018-05-04T08:10:51.557Z,18.90
2018-05-04T08:13:26.815Z,18.80
2018-05-04T08:16:02.191Z,18.90
2018-05-04T08:18:37.363Z,19.20
2018-05-04T08:21:12.630Z,19.00
2018-05-04T08:23:47.963Z,18.90
2018-05-04T08:26:23.212Z,18.90
2018-05-04T08:28:58.468Z,19.20
2018-05-04T08:31:33.708Z,19.20
2018-05-04T08:34:09.023Z,19.30
2018-05-04T08:36:44.341Z,19.30
2018-05-04T08:39:19.465Z,19.40
2018-05-04T08:41:54.685Z,19.30
2018-05-04T08:44:29.788Z,19.40
2018-05-04T08:47:05.139Z,19.70
2018-05-04T08:49:40.402Z,20.00
2018-05-04T08:52:16.369Z,19.80
2018-05-04T08:54:51.737Z,19.70
2018-05-04T08:57:27.124Z,19.60
2018-05-04T09:00:02.337Z,20.00
2018-05-04T09:02:37.587Z,20.10
2018-05-04T09:05:12.964Z,20.00
2018-05-04T09:07:48.188Z,20.20
2018-05-04T09:10:23.536Z,20.60
2018-05-04T09:12:58.658Z,20.80
2018-05-04T09:15:34.024Z,20.70
2018-05-04T09:18:09.339Z,20.50
2018-05-04T09:20:44.699Z,20.40
2018-05-04T09:23:21.988Z,20.10
2018-05-04T09:25:57.243Z,20.00
2018-05-04T09:28:32.341Z,20.10
2018-05-04T09:31:07.745Z,20.30
2018-05-04T09:33:42.892Z,20.40
2018-05-04T09:36:18.907Z,20.60
2018-05-04T09:38:54.939Z,20.80
2018-05-04T09:41:31.099Z,21.00
2018-05-04T09:44:07.184Z,21.20
2018-05-04T09:46:43.144Z,21.00
2018-05-04T09:49:18.338Z,21.00
2018-05-04T09:51:53.685Z,21.40
2018-05-04T09:54:28.931Z,21.50
2018-05-04T09:57:04.313Z,21.60
2018-05-04T09:59:39.601Z,21.30
2018-05-04T10:02:14.842Z,21.20
2018-05-04T10:04:50.195Z,21.50
2018-05-04T10:07:25.508Z,21.50
2018-05-04T10:10:01.524Z,21.60
2018-05-04T10:12:36.699Z,21.60
2018-05-04T10:15:11.976Z,21.80
2018-05-04T10:17:47.339Z,21.90
2018-05-04T10:20:22.550Z,21.80
2018-05-04T10:22:57.622Z,22.00
2018-05-04T10:25:32.940Z,22.00
2018-05-04T10:28:08.174Z,22.30
2018-05-04T10:30:43.505Z,22.20
2018-05-04T10:33:18.759Z,22.30
2018-05-04T10:35:54.086Z,22.40
2018-05-04T10:38:30.615Z,22.60
2018-05-04T10:41:06.541Z,22.70
2018-05-04T10:43:43.209Z,22.70
2018-05-04T10:46:18.300Z,22.80
2018-05-04T10:48:53.515Z,23.20
2018-05-04T10:51:28.806Z,23.40
2018-05-04T10:54:03.897Z,23.30
2018-05-04T10:56:39.195Z,23.50
2018-05-04T10:59:15.258Z,23.70
2018-05-04T11:01:50.435Z,23.70
2018-05-04T11:04:25.548Z,23.80
2018-05-04T11:07:00.682Z,23.50
2018-05-04T11:09:35.997Z,23.50
2018-05-04T11:12:12.061Z,23.50
2018-05-04T11:14:47.367Z,23.50
2018-05-04T11:17:22.674Z,23.30
2018-05-04T11:19:57.863Z,23.30
2018-05-04T11:22:33.128Z,23.50
2018-05-04T11:25:08.532Z,23.80
2018-05-04T11:27:43.801Z,24.10
2018-05-04T11:30:19.040Z,24.10
2018-05-04T11:32:54.342Z,24.10
2018-05-04T11:35:30.410Z,23.80
2018-05-04T11:38:05.752Z,23.80
2018-05-04T11:40:41.016Z,23.70
2018-05-04T11:43:16.341Z,23.50
2018-05-04T11:45:51.485Z,23.50
2018-05-04T11:48:26.636Z,23.50
2018-05-04T11:51:01.863Z,23.70
2018-05-04T11:53:37.968Z,23.70
2018-05-04T11:56:13.183Z,23.70
2018-05-04T11:58:48.751Z,23.50
2018-05-04T12:01:25.011Z,23.70
2018-05-04T12:04:00.470Z,23.60
2018-05-04T12:06:35.766Z,23.80
2018-05-04T12:09:11.220Z,23.90
2018-05-04T12:11:46.401Z,23.90
2018-05-04T12:14:21.640Z,23.80
2018-05-04T12:16:57.666Z,23.80
2018-05-04T12:19:33.540Z,23.70
2018-05-04T12:22:08.655Z,23.70
2018-05-04T12:24:43.988Z,23.70
2018-05-04T12:27:19.847Z,23.30
2018-05-04T12:29:54.979Z,23.20
2018-05-04T12:32:30.182Z,23.50
2018-05-04T12:35:05.465Z,23.60
2018-05-04T12:37:40.579Z,23.50
2018-05-04T12:40:15.930Z,23.50
2018-05-04T12:42:50.980Z,23.50
2018-05-04T12:45:26.383Z,23.50
2018-05-04T12:48:01.648Z,23.50
2018-05-04T12:50:37.003Z,23.50
2018-05-04T12:53:12.349Z,23.30
2018-05-04T12:55:47.665Z,23.40
2018-05-04T12:58:23.092Z,23.30
2018-05-04T13:00:58.146Z,23.20
2018-05-04T13:03:33.412Z,23.20
2018-05-04T13:06:08.748Z,23.10
2018-05-04T13:08:44.125Z,23.00
2018-05-04T13:11:19.440Z,23.10
2018-05-04T13:13:54.783Z,23.10
2018-05-04T13:16:30.306Z,23.10
2018-05-04T13:19:07.862Z,23.10
2018-05-04T13:21:43.044Z,23.00
2018-05-04T13:24:18.279Z,23.00
2018-05-04T13:26:53.649Z,22.90
2018-05-04T13:29:29.510Z,23.00
2018-05-04T13:32:05.457Z,23.10
2018-05-04T13:34:41.883Z,23.10
2018-05-04T13:37:16.938Z,22.90
2018-05-04T13:39:52.198Z,22.80
2018-05-04T13:42:28.209Z,22.80
2018-05-04T13:45:03.490Z,22.80
2018-05-04T13:47:38.626Z,22.70
2018-05-04T13:50:13.928Z,22.50
2018-05-04T13:52:49.987Z,22.60
2018-05-04T13:55:25.286Z,22.60
2018-05-04T13:58:00.439Z,22.50
2018-05-04T14:00:35.753Z,22.40
2018-05-04T14:03:11.075Z,22.30
2018-05-04T14:05:46.281Z,22.50
2018-05-04T14:08:22.188Z,22.50
2018-05-04T14:10:58.248Z,22.70
2018-05-04T14:13:33.448Z,22.60
2018-05-04T14:16:08.569Z,22.70
2018-05-04T14:18:44.578Z,22.60
2018-05-04T14:21:19.820Z,22.60
2018-05-04T14:23:55.015Z,22.50
2018-05-04T14:26:30.244Z,22.40
2018-05-04T14:29:05.418Z,22.40
2018-05-04T14:31:40.683Z,22.40
2018-05-04T14:34:16.113Z,22.40
2018-05-04T14:36:51.399Z,22.20
2018-05-04T14:39:28.589Z,22.20
2018-05-04T14:42:03.783Z,22.10
2018-05-04T14:44:39.766Z,21.80
2018-05-04T14:47:14.947Z,21.80
2018-05-04T14:49:50.195Z,21.70
2018-05-04T14:52:26.169Z,21.40
2018-05-04T14:55:01.291Z,21.40
2018-05-04T14:57:36.544Z,21.40
2018-05-04T15:00:11.923Z,21.30
2018-05-04T15:02:47.257Z,21.30
2018-05-04T15:05:22.378Z,21.20
2018-05-04T15:07:57.702Z,21.20
2018-05-04T15:10:32.950Z,21.20
2018-05-04T15:13:08.275Z,21.10
2018-05-04T15:15:43.630Z,21.00
2018-05-04T15:18:19.787Z,21.10
2018-05-04T15:20:55.766Z,21.10
2018-05-04T15:23:30.958Z,21.10
2018-05-04T15:26:06.254Z,21.00
2018-05-04T15:28:41.373Z,21.00
2018-05-04T15:31:16.605Z,21.00
2018-05-04T15:33:51.932Z,20.90
2018-05-04T15:36:27.287Z,21.00
2018-05-04T15:39:02.607Z,20.80
2018-05-04T15:41:38.708Z,20.80
2018-05-04T15:44:13.925Z,20.80
2018-05-04T15:46:49.061Z,20.70
2018-05-04T15:49:24.918Z,20.70
2018-05-04T15:52:05.991Z,20.70
2018-05-04T15:54:42.616Z,20.60
2018-05-04T15:57:17.904Z,20.60
2018-05-04T15:59:53.196Z,20.50
2018-05-04T16:02:28.479Z,20.50
2018-05-04T16:05:03.815Z,20.60
2018-05-04T16:07:39.180Z,20.40
2018-05-04T16:10:14.442Z,20.30
2018-05-04T16:12:49.753Z,20.20
2018-05-04T16:15:24.983Z,20.20
2018-05-04T16:18:00.169Z,20.20
2018-05-04T16:20:36.102Z,20.10
2018-05-04T16:23:11.212Z,20.10
2018-05-04T16:25:46.488Z,20.00
2018-05-04T16:28:21.862Z,20.00
2018-05-04T16:30:57.011Z,20.10
2018-05-04T16:33:32.296Z,20.00
2018-05-04T16:36:07.535Z,20.00
2018-05-04T16:38:42.900Z,19.90
2018-05-04T16:41:19.119Z,19.90
2018-05-04T16:43:55.041Z,19.80
2018-05-04T16:46:35.743Z,19.80
2018-05-04T16:49:16.621Z,19.70
2018-05-04T16:51:51.858Z,19.70
2018-05-04T16:54:27.284Z,19.70
2018-05-04T16:57:02.472Z,19.60
2018-05-04T16:59:37.821Z,19.60
2018-05-04T17:02:13.217Z,19.60
2018-05-04T17:04:49.397Z,19.50
2018-05-04T17:07:25.497Z,19.30
2018-05-04T17:10:01.929Z,19.30
2018-05-04T17:12:37.878Z,19.20
2018-05-04T17:15:13.005Z,19.20
2018-05-04T17:17:48.163Z,19.10
2018-05-04T17:20:23.375Z,19.00
2018-05-04T17:22:58.712Z,19.00
2018-05-04T17:25:34.716Z,19.10
2018-05-04T17:28:09.825Z,19.00
2018-05-04T17:30:45.876Z,18.90
2018-05-04T17:33:21.211Z,18.90
2018-05-04T17:35:57.262Z,18.80
2018-05-04T17:38:32.463Z,18.80
2018-05-04T17:41:07.849Z,18.80
2018-05-04T17:43:43.098Z,18.80
2018-05-04T17:46:18.451Z,18.70
2018-05-04T17:48:53.557Z,18.70
2018-05-04T17:51:29.520Z,18.70
2018-05-04T17:54:04.862Z,18.70
2018-05-04T17:56:40.213Z,18.60
2018-05-04T17:59:15.545Z,18.60
2018-05-04T18:01:50.901Z,18.50
2018-05-04T18:04:26.209Z,18.40
2018-05-04T18:07:01.478Z,18.40
2018-05-04T18:09:36.951Z,18.30
2018-05-04T18:12:12.937Z,18.10
2018-05-04T18:14:48.832Z,18.10
2018-05-04T18:17:24.838Z,18.00
2018-05-04T18:20:00.830Z,18.00
2018-05-04T18:22:35.971Z,17.90
2018-05-04T18:25:15.655Z,17.90
2018-05-04T18:27:51.692Z,17.80
2018-05-04T18:30:27.036Z,17.80
2018-05-04T18:33:02.460Z,17.70
2018-05-04T18:35:37.718Z,17.60
2018-05-04T18:38:12.884Z,17.50
2018-05-04T18:40:48.026Z,17.50
2018-05-04T18:43:23.330Z,17.40
2018-05-04T18:45:58.673Z,17.40
2018-05-04T18:48:34.717Z,17.20
2018-05-04T18:51:10.075Z,17.20
2018-05-04T18:53:45.279Z,17.20
2018-05-04T18:56:20.425Z,17.10
2018-05-04T18:58:55.698Z,17.10
2018-05-04T19:01:30.761Z,17.00
2018-05-04T19:04:06.153Z,16.90
2018-05-04T19:06:41.378Z,16.90
2018-05-04T19:09:16.688Z,16.80
2018-05-04T19:11:51.972Z,16.80
2018-05-04T19:14:28.667Z,16.60
2018-05-04T19:17:04.019Z,16.50
2018-05-04T19:19:39.435Z,16.50
2018-05-04T19:22:14.556Z,16.50
2018-05-04T19:24:49.915Z,16.40
2018-05-04T19:27:25.975Z,16.30
2018-05-04T19:30:01.487Z,16.20
2018-05-04T19:32:36.829Z,16.30
2018-05-04T19:35:12.050Z,16.20
2018-05-04T19:37:48.105Z,16.10
2018-05-04T19:40:23.973Z,16.10
2018-05-04T19:42:59.183Z,16.10
2018-05-04T19:45:34.606Z,16.10
2018-05-04T19:48:10.787Z,15.90
2018-05-04T19:50:46.004Z,15.90
2018-05-04T19:53:21.196Z,15.90
2018-05-04T19:55:56.365Z,15.80
2018-05-04T19:58:31.626Z,15.70
2018-05-04T20:01:07.568Z,15.50
2018-05-04T20:03:42.925Z,15.40
2018-05-04T20:06:18.302Z,15.40
2018-05-04T20:08:53.522Z,15.30
2018-05-04T20:11:28.884Z,15.20
2018-05-04T20:14:03.998Z,15.20
2018-05-04T20:16:39.266Z,15.10
2018-05-04T20:19:14.601Z,15.10
2018-05-04T20:21:49.902Z,15.10
2018-05-04T20:24:25.305Z,15.00
2018-05-04T20:27:00.464Z,14.90
2018-05-04T20:29:36.367Z,14.80
2018-05-04T20:32:11.546Z,14.70
2018-05-04T20:34:46.877Z,14.70
2018-05-04T20:37:22.835Z,14.60
2018-05-04T20:39:58.754Z,14.50
2018-05-04T20:42:33.879Z,14.40
2018-05-04T20:45:09.375Z,14.40
2018-05-04T20:47:44.479Z,14.40
2018-05-04T20:50:19.823Z,14.40
2018-05-04T20:52:55.027Z,14.30
2018-05-04T20:55:30.359Z,14.30
2018-05-04T20:58:05.670Z,14.20
2018-05-04T21:00:42.692Z,14.20
2018-05-04T21:03:19.163Z,14.10
2018-05-04T21:05:56.300Z,14.10
2018-05-04T21:08:31.590Z,14.00
2018-05-04T21:11:06.974Z,14.00
2018-05-04T21:13:42.980Z,13.90
2018-05-04T21:16:18.339Z,13.90
2018-05-04T21:18:53.643Z,13.90
2018-05-04T21:21:29.012Z,13.90
2018-05-04T21:24:04.327Z,13.80
2018-05-04T21:26:39.582Z,13.80
2018-05-04T21:29:14.859Z,13.80
2018-05-04T21:31:50.032Z,13.70
2018-05-04T21:34:25.186Z,13.60
2018-05-04T21:37:00.436Z,13.60
2018-05-04T21:39:35.522Z,13.50
2018-05-04T21:42:10.825Z,13.50
2018-05-04T21:44:46.936Z,13.50
2018-05-04T21:47:22.004Z,13.40
2018-05-04T21:49:57.943Z,13.40
2018-05-04T21:52:33.217Z,13.40
2018-05-04T21:55:08.454Z,13.40
2018-05-04T21:57:43.547Z,13.30
2018-05-04T22:00:18.736Z,13.30
2018-05-04T22:02:54.132Z,13.20
2018-05-04T22:05:29.369Z,13.30
2018-05-04T22:08:04.680Z,13.20
2018-05-04T22:10:40.643Z,13.10
2018-05-04T22:13:16.656Z,13.20
2018-05-04T22:15:53.657Z,13.10
2018-05-04T22:18:28.876Z,13.10
2018-05-04T22:21:07.415Z,13.10
2018-05-04T22:23:42.600Z,13.10
2018-05-04T22:26:18.656Z,13.00
2018-05-04T22:28:53.732Z,13.00
2018-05-04T22:31:28.860Z,12.90
2018-05-04T22:34:03.996Z,12.90
2018-05-04T22:36:39.247Z,12.90
2018-05-04T22:39:14.615Z,12.80
2018-05-04T22:41:49.929Z,12.70
2018-05-04T22:44:25.315Z,12.70
2018-05-04T22:47:00.631Z,12.70
2018-05-04T22:49:36.576Z,12.70
2018-05-04T22:52:11.858Z,12.60
2018-05-04T22:54:46.976Z,12.70
2018-05-04T22:57:22.386Z,12.70
2018-05-04T22:59:58.434Z,12.60
2018-05-04T23:02:33.698Z,12.60
2018-05-04T23:05:09.090Z,12.60
2018-05-04T23:07:44.187Z,12.60
2018-05-04T23:10:19.532Z,12.50
2018-05-04T23:12:55.598Z,12.50
2018-05-04T23:15:30.914Z,12.50
2018-05-04T23:18:06.256Z,12.50
2018-05-04T23:20:42.249Z,12.50
2018-05-04T23:23:17.691Z,12.50
2018-05-04T23:25:53.776Z,12.40
2018-05-04T23:28:28.899Z,12.40
2018-05-04T23:31:04.066Z,12.40
2018-05-04T23:33:40.160Z,12.40
2018-05-04T23:36:16.391Z,12.30
2018-05-04T23:38:51.431Z,12.30
2018-05-04T23:41:26.797Z,12.30
2018-05-04T23:44:02.067Z,12.30
2018-05-04T23:46:37.402Z,12.20
2018-05-04T23:49:12.796Z,12.20
2018-05-04T23:51:48.035Z,12.20
2018-05-04T23:54:23.287Z,12.10
2018-05-04T23:56:58.435Z,12.10
2018-05-04T23:59:33.699Z,12.10
